createdAt,value
2022-10-14T00:00:24.867Z,17.33
2022-10-14T00:02:53.903Z,16.73
2022-10-14T00:05:21.596Z,18.40
2022-10-14T00:07:49.272Z,14.47
2022-10-14T00:10:17.351Z,19.50
2022-10-14T00:12:45.372Z,20.73
2022-10-14T00:15:13.384Z,16.17
2022-10-14T00:17:41.216Z,24.33
2022-10-14T00:20:11.224Z,23.80
2022-10-14T00:22:38.895Z,21.93
2022-10-14T00:25:06.903Z,22.63
2022-10-14T00:27:34.606Z,19.80
2022-10-14T00:30:02.314Z,17.70
2022-10-14T00:32:29.994Z,17.80
2022-10-14T00:34:57.736Z,19.03
2022-10-14T00:37:26.901Z,21.40
2022-10-14T00:39:57.000Z,21.60
2022-10-14T00:42:25.048Z,23.30
2022-10-14T00:45:14.354Z,17.47
2022-10-14T00:47:43.711Z,20.30
2022-10-14T00:50:14.232Z,18.00
2022-10-14T00:52:44.278Z,22.00
2022-10-14T00:55:15.672Z,21.40
2022-10-14T00:57:43.955Z,20.70
2022-10-14T01:00:14.514Z,20.77
2022-10-14T01:02:42.480Z,20.87
2022-10-14T01:05:12.090Z,27.03
2022-10-14T01:07:53.650Z,19.07
2022-10-14T01:10:29.151Z,19.67
2022-10-14T01:13:05.419Z,23.43
2022-10-14T01:15:39.884Z,23.70
2022-10-14T01:18:21.121Z,20.23
2022-10-14T01:21:17.948Z,23.70
2022-10-14T01:24:26.939Z,21.13
2022-10-14T01:27:33.916Z,21.97
2022-10-14T01:30:12.118Z,21.57
2022-10-14T01:32:51.480Z,21.93
2022-10-14T01:35:30.135Z,18.53
2022-10-14T01:38:02.181Z,18.80
2022-10-14T01:40:36.377Z,20.03
2022-10-14T01:43:06.956Z,21.83
2022-10-14T01:45:39.401Z,17.40
2022-10-14T01:48:07.646Z,21.57
2022-10-14T01:50:37.432Z,14.50
2022-10-14T01:53:08.474Z,15.77
2022-10-14T01:55:40.897Z,16.63
2022-10-14T01:58:11.425Z,19.77
2022-10-14T02:00:40.483Z,19.17
2022-10-14T02:03:08.890Z,17.10
2022-10-14T02:05:39.936Z,16.47
2022-10-14T02:08:12.790Z,17.40
2022-10-14T02:10:59.532Z,19.97
2022-10-14T02:13:42.813Z,16.70
2022-10-14T02:16:21.069Z,18.17
2022-10-14T02:18:55.165Z,16.90
2022-10-14T02:21:25.590Z,17.73
2022-10-14T02:24:00.246Z,18.63
2022-10-14T02:26:29.260Z,17.30
2022-10-14T02:28:58.528Z,15.23
2022-10-14T02:31:29.559Z,18.93
2022-10-14T02:34:01.792Z,17.93
2022-10-14T02:36:30.626Z,21.50
2022-10-14T02:39:01.728Z,17.80
2022-10-14T02:41:37.164Z,19.60
2022-10-14T02:44:06.246Z,18.63
2022-10-14T02:46:36.573Z,17.20
2022-10-14T02:49:04.417Z,18.37
2022-10-14T02:51:32.132Z,20.93
2022-10-14T02:54:01.520Z,18.47
2022-10-14T02:56:29.266Z,21.67
2022-10-14T02:58:56.946Z,21.53
2022-10-14T03:01:24.721Z,20.33
2022-10-14T03:03:53.814Z,20.63
2022-10-14T03:06:21.511Z,22.43
2022-10-14T03:08:49.152Z,21.37
2022-10-14T03:11:16.912Z,20.67
2022-10-14T03:13:44.594Z,23.83
2022-10-14T03:16:12.321Z,22.77
2022-10-14T03:18:39.973Z,19.80
2022-10-14T03:21:09.022Z,23.47
2022-10-14T03:23:36.687Z,22.07
2022-10-14T03:26:04.387Z,23.60
2022-10-14T03:28:32.101Z,25.17
2022-10-14T03:30:59.816Z,22.77
2022-10-14T03:33:29.822Z,20.63
2022-10-14T03:36:00.852Z,21.90
2022-10-14T03:38:29.925Z,24.43
2022-10-14T03:40:57.900Z,22.07
2022-10-14T03:43:25.676Z,21.37
2022-10-14T03:45:53.406Z,24.37
2022-10-14T03:48:21.079Z,22.60
2022-10-14T03:50:48.801Z,22.10
2022-10-14T03:53:16.529Z,23.73
2022-10-14T03:55:45.579Z,23.30
2022-10-14T03:58:13.620Z,22.77
2022-10-14T04:00:41.410Z,20.87
2022-10-14T04:03:09.125Z,22.73
2022-10-14T04:05:37.104Z,23.57
2022-10-14T04:08:05.236Z,24.80
2022-10-14T04:10:32.936Z,24.43
2022-10-14T04:13:01.998Z,22.43
2022-10-14T04:15:29.712Z,28.53
2022-10-14T04:17:57.748Z,23.67
2022-10-14T04:20:25.466Z,24.37
2022-10-14T04:22:53.191Z,26.13
2022-10-14T04:25:21.448Z,22.77
2022-10-14T04:27:49.298Z,21.63
2022-10-14T04:30:18.800Z,22.93
2022-10-14T04:32:46.905Z,23.63
2022-10-14T04:35:14.740Z,25.70
2022-10-14T04:37:42.549Z,21.20
2022-10-14T04:40:11.217Z,21.50
2022-10-14T04:42:38.929Z,22.47
2022-10-14T04:45:07.453Z,26.87
2022-10-14T04:47:36.548Z,24.30
2022-10-14T04:50:04.530Z,23.53
2022-10-14T04:52:32.245Z,24.40
2022-10-14T04:54:59.931Z,26.43
2022-10-14T04:57:27.631Z,22.17
2022-10-14T04:59:55.336Z,21.73
2022-10-14T05:02:23.432Z,28.73
2022-10-14T05:04:52.819Z,26.50
2022-10-14T05:07:20.567Z,24.37
2022-10-14T05:09:50.478Z,23.53
2022-10-14T05:12:21.075Z,25.93
2022-10-14T05:14:48.924Z,27.23
2022-10-14T05:17:16.625Z,25.10
2022-10-14T05:19:44.326Z,23.90
2022-10-14T05:22:13.679Z,25.70
2022-10-14T05:24:41.711Z,27.87
2022-10-14T05:27:09.378Z,24.70
2022-10-14T05:29:37.107Z,26.40
2022-10-14T05:32:05.242Z,25.30
2022-10-14T05:34:32.942Z,32.27
2022-10-14T05:37:00.612Z,29.70
2022-10-14T05:39:29.916Z,28.10
2022-10-14T05:41:57.599Z,28.63
2022-10-14T05:44:25.758Z,32.73
2022-10-14T05:46:53.481Z,30.43
2022-10-14T05:49:21.198Z,33.33
2022-10-14T05:51:48.928Z,34.47
2022-10-14T05:54:16.661Z,36.13
2022-10-14T05:56:45.703Z,33.77
2022-10-14T05:59:13.439Z,38.20
2022-10-14T06:01:41.240Z,41.60
2022-10-14T06:04:08.928Z,40.13
2022-10-14T06:06:36.619Z,39.33
2022-10-14T06:09:07.702Z,41.63
2022-10-14T06:11:38.932Z,40.10
2022-10-14T06:14:08.194Z,46.00
2022-10-14T06:16:35.863Z,52.77
2022-10-14T06:19:03.789Z,47.60
2022-10-14T06:21:31.441Z,47.13
2022-10-14T06:23:59.121Z,44.40
2022-10-14T06:26:26.828Z,52.67
2022-10-14T06:28:54.665Z,49.23
2022-10-14T06:31:25.006Z,43.47
2022-10-14T06:33:55.181Z,45.33
2022-10-14T06:36:22.882Z,44.40
2022-10-14T06:38:50.615Z,42.90
2022-10-14T06:41:18.322Z,38.33
2022-10-14T06:43:46.032Z,46.83
2022-10-14T06:46:13.709Z,43.13
2022-10-14T06:48:45.785Z,47.03
2022-10-14T06:51:17.063Z,46.67
2022-10-14T06:53:44.735Z,47.93
2022-10-14T06:56:12.589Z,47.77
2022-10-14T06:58:40.229Z,49.67
2022-10-14T07:01:09.719Z,48.83
2022-10-14T07:03:39.262Z,49.80
2022-10-14T07:06:09.698Z,43.10
2022-10-14T07:08:37.403Z,45.47
2022-10-14T07:11:05.966Z,49.70
2022-10-14T07:13:34.511Z,52.07
2022-10-14T07:16:03.193Z,48.77
2022-10-14T07:18:31.877Z,49.23
2022-10-14T07:21:03.171Z,49.30
2022-10-14T07:23:32.588Z,51.30
2022-10-14T07:26:00.568Z,47.80
2022-10-14T07:28:28.376Z,50.50
2022-10-14T07:31:00.597Z,53.90
2022-10-14T07:33:28.384Z,54.80
2022-10-14T07:35:56.172Z,53.80
2022-10-14T07:38:23.873Z,43.43
2022-10-14T07:41:01.614Z,46.93
2022-10-14T07:43:30.304Z,46.23
2022-10-14T07:46:02.600Z,47.03
2022-10-14T07:48:44.950Z,48.90
2022-10-14T07:51:19.354Z,44.83
2022-10-14T07:53:48.189Z,50.97
2022-10-14T07:56:17.239Z,47.70
2022-10-14T07:58:46.393Z,49.00
2022-10-14T08:01:15.575Z,42.93
2022-10-14T08:03:44.211Z,44.17
2022-10-14T08:06:12.408Z,40.47
2022-10-14T08:08:40.421Z,41.87
2022-10-14T08:11:11.658Z,42.53
2022-10-14T08:13:45.262Z,42.83
2022-10-14T08:16:17.338Z,44.03
2022-10-14T08:18:45.459Z,41.33
2022-10-14T08:21:13.348Z,41.17
2022-10-14T08:23:41.090Z,38.10
2022-10-14T08:26:23.573Z,37.80
2022-10-14T08:28:53.155Z,40.57
2022-10-14T08:31:21.398Z,38.47
2022-10-14T08:33:49.216Z,37.97
2022-10-14T08:36:17.816Z,37.17
2022-10-14T08:38:45.563Z,37.27
2022-10-14T08:41:25.989Z,38.17
2022-10-14T08:44:10.675Z,40.60
2022-10-14T08:46:41.514Z,39.67
2022-10-14T08:49:18.322Z,36.70
2022-10-14T08:51:50.214Z,36.73
2022-10-14T08:54:29.740Z,36.97
2022-10-14T08:56:58.739Z,35.40
2022-10-14T08:59:28.114Z,32.27
2022-10-14T09:02:01.650Z,34.73
2022-10-14T09:04:29.520Z,33.67
2022-10-14T09:06:57.959Z,30.27
2022-10-14T09:09:31.740Z,31.00
2022-10-14T09:12:01.687Z,28.87
2022-10-14T09:14:35.382Z,29.33
2022-10-14T09:17:08.469Z,28.83
2022-10-14T09:19:42.900Z,25.67
2022-10-14T09:22:14.130Z,23.90
2022-10-14T09:24:45.314Z,27.77
2022-10-14T09:27:16.658Z,32.83
2022-10-14T09:29:49.849Z,29.23
2022-10-14T09:32:27.662Z,25.20
2022-10-14T09:34:57.233Z,25.93
2022-10-14T09:37:28.019Z,25.30
2022-10-14T09:39:58.083Z,23.23
2022-10-14T09:42:28.939Z,22.20
2022-10-14T09:45:11.468Z,22.47
2022-10-14T09:47:46.020Z,24.63
2022-10-14T09:50:23.881Z,23.20
2022-10-14T09:52:56.127Z,21.80
2022-10-14T09:55:25.407Z,25.00
2022-10-14T09:58:05.204Z,24.07
2022-10-14T10:00:37.831Z,22.77
2022-10-14T10:03:07.093Z,23.57
2022-10-14T10:05:36.299Z,23.80
2022-10-14T10:08:17.340Z,23.10
2022-10-14T10:11:03.514Z,23.60
2022-10-14T10:13:41.508Z,24.00
2022-10-14T10:16:21.481Z,23.50
2022-10-14T10:18:49.377Z,23.73
2022-10-14T10:21:20.069Z,29.13
2022-10-14T10:23:54.451Z,26.13
2022-10-14T10:26:27.030Z,28.70
2022-10-14T10:28:57.494Z,25.27
2022-10-14T10:31:52.000Z,29.53
2022-10-14T10:34:47.711Z,26.90
2022-10-14T10:37:26.180Z,29.47
2022-10-14T10:40:09.959Z,29.87
2022-10-14T10:42:49.559Z,29.67
2022-10-14T10:45:36.321Z,30.87
2022-10-14T10:48:12.812Z,32.53
2022-10-14T10:50:48.521Z,30.83
2022-10-14T10:53:40.935Z,32.30
2022-10-14T10:56:18.333Z,29.17
2022-10-14T10:59:01.619Z,27.50
2022-10-14T11:01:40.177Z,29.27
2022-10-14T11:04:30.929Z,27.07
2022-10-14T11:07:29.472Z,27.17
2022-10-14T11:10:25.293Z,32.03
2022-10-14T11:12:59.999Z,31.17
2022-10-14T11:15:43.112Z,32.60
2022-10-14T11:18:17.046Z,29.90
2022-10-14T11:20:58.391Z,27.50
2022-10-14T11:23:48.170Z,25.27
2022-10-14T11:26:41.410Z,25.97
2022-10-14T11:29:22.204Z,24.83
2022-10-14T11:31:59.779Z,23.17
2022-10-14T11:34:42.816Z,26.13
2022-10-14T11:37:22.572Z,20.47
2022-10-14T11:39:55.708Z,15.00
2022-10-14T11:42:44.343Z,15.07
2022-10-14T11:45:31.258Z,13.53
2022-10-14T11:48:09.416Z,14.40
2022-10-14T11:50:41.528Z,16.47
2022-10-14T11:53:17.912Z,11.60
2022-10-14T11:55:50.284Z,11.33
2022-10-14T11:58:23.914Z,11.13
2022-10-14T12:00:55.878Z,10.80
2022-10-14T12:03:35.856Z,11.97
2022-10-14T12:06:10.270Z,12.70
2022-10-14T12:08:46.624Z,11.10
2022-10-14T12:11:26.845Z,12.60
2022-10-14T12:14:04.432Z,12.07
2022-10-14T12:16:32.722Z,12.37
2022-10-14T12:19:00.633Z,12.57
2022-10-14T12:21:34.466Z,14.07
2022-10-14T12:24:08.211Z,11.50
2022-10-14T12:26:48.089Z,12.50
2022-10-14T12:29:18.683Z,14.10
2022-10-14T12:31:51.516Z,13.23
2022-10-14T12:34:31.181Z,14.17
2022-10-14T12:36:58.936Z,13.53
2022-10-14T12:39:43.299Z,10.93
2022-10-14T12:42:13.874Z,13.60
2022-10-14T12:44:48.130Z,12.63
2022-10-14T12:47:22.801Z,11.60
2022-10-14T12:49:53.074Z,13.83
2022-10-14T12:52:25.690Z,13.43
2022-10-14T12:54:56.150Z,13.83
2022-10-14T12:57:29.661Z,13.17
2022-10-14T13:00:00.456Z,11.17
2022-10-14T13:02:35.229Z,12.17
2022-10-14T13:05:07.030Z,15.20
2022-10-14T13:07:44.763Z,13.03
2022-10-14T13:10:52.504Z,13.07
2022-10-14T13:14:22.051Z,13.43
2022-10-14T13:16:57.551Z,13.57
2022-10-14T13:19:46.635Z,16.47
2022-10-14T13:22:43.643Z,13.93
2022-10-14T13:25:21.320Z,14.60
2022-10-14T13:28:12.548Z,15.70
2022-10-14T13:30:57.193Z,13.23
2022-10-14T13:33:32.240Z,12.53
2022-10-14T13:36:12.008Z,12.60
2022-10-14T13:38:44.444Z,12.47
2022-10-14T13:41:30.821Z,12.43
2022-10-14T13:44:02.902Z,11.97
2022-10-14T13:46:36.391Z,13.27
2022-10-14T13:49:07.948Z,14.90
2022-10-14T13:51:47.775Z,14.63
2022-10-14T13:54:19.081Z,14.10
2022-10-14T13:57:34.703Z,14.20
2022-10-14T14:00:28.134Z,15.50
2022-10-14T14:02:39.585Z,13.60
2022-10-14T14:05:15.390Z,13.53
2022-10-14T14:08:22.251Z,15.20
2022-10-14T14:10:32.717Z,13.10
2022-10-14T14:13:05.240Z,13.77
2022-10-14T14:15:33.443Z,14.43
2022-10-14T14:18:02.602Z,14.50
2022-10-14T14:20:33.985Z,14.80
2022-10-14T14:23:01.909Z,14.57
2022-10-14T14:25:35.736Z,16.00
2022-10-14T14:28:07.033Z,17.73
2022-10-14T14:30:36.505Z,14.70
2022-10-14T14:33:09.644Z,15.13
2022-10-14T14:35:37.818Z,14.30
2022-10-14T14:38:05.531Z,15.63
2022-10-14T14:40:33.334Z,17.00
2022-10-14T14:43:03.024Z,15.77
2022-10-14T14:45:33.549Z,18.23
2022-10-14T14:48:06.428Z,15.20
2022-10-14T14:50:38.034Z,18.77
2022-10-14T14:53:12.138Z,17.03
2022-10-14T14:56:00.511Z,15.53
2022-10-14T14:58:32.985Z,17.63
2022-10-14T15:01:00.816Z,15.10
2022-10-14T15:03:32.911Z,15.53
2022-10-14T15:06:02.357Z,16.37
2022-10-14T15:08:33.245Z,16.77
2022-10-14T15:11:01.862Z,16.93
2022-10-14T15:13:33.754Z,17.83
2022-10-14T15:16:01.477Z,19.00
2022-10-14T15:18:30.640Z,17.23
2022-10-14T15:21:16.285Z,16.27
2022-10-14T15:24:00.553Z,18.47
2022-10-14T15:26:34.586Z,17.83
2022-10-14T15:32:10.789Z,17.10
2022-10-14T15:34:40.006Z,15.90
2022-10-14T15:37:07.945Z,17.77
2022-10-14T15:39:35.729Z,17.10
2022-10-14T15:42:03.424Z,17.50
2022-10-14T15:44:31.182Z,16.07
2022-10-14T15:47:22.415Z,16.90
2022-10-14T15:49:51.517Z,16.63
2022-10-14T15:52:20.580Z,17.87
2022-10-14T15:54:50.831Z,17.07
2022-10-14T15:57:18.584Z,16.83
2022-10-14T15:59:46.260Z,17.00
2022-10-14T16:02:19.538Z,17.73
2022-10-14T16:05:07.312Z,16.60
2022-10-14T16:07:36.773Z,18.17
2022-10-14T16:10:05.118Z,19.83
2022-10-14T16:12:32.836Z,18.60
2022-10-14T16:15:01.883Z,19.27
2022-10-14T16:17:29.793Z,20.80
2022-10-14T16:19:57.505Z,23.07
2022-10-14T16:22:25.194Z,23.17
2022-10-14T16:24:54.302Z,18.40
2022-10-14T16:27:24.594Z,19.63
2022-10-14T16:29:52.665Z,25.90
2022-10-14T16:32:20.364Z,27.27
2022-10-14T16:34:48.038Z,26.90
2022-10-14T16:37:16.780Z,27.20
2022-10-14T16:39:44.502Z,25.00
2022-10-14T16:42:13.611Z,26.30
2022-10-14T16:44:41.338Z,25.73
2022-10-14T16:47:17.111Z,24.67
2022-10-14T16:49:45.702Z,26.93
2022-10-14T16:52:13.845Z,26.33
2022-10-14T16:54:41.552Z,24.53
2022-10-14T16:57:13.954Z,25.70
2022-10-14T16:59:43.735Z,28.37
2022-10-14T17:02:14.756Z,26.00
2022-10-14T17:04:43.258Z,27.63
2022-10-14T17:07:12.388Z,26.27
2022-10-14T17:09:40.072Z,27.03
2022-10-14T17:12:12.897Z,27.13
2022-10-14T17:14:43.944Z,27.77
2022-10-14T17:17:13.089Z,27.13
2022-10-14T17:19:41.340Z,27.07
2022-10-14T17:22:09.045Z,26.03
2022-10-14T17:24:36.749Z,29.13
2022-10-14T17:27:05.325Z,28.70
2022-10-14T17:29:33.449Z,27.77
2022-10-14T17:32:02.707Z,25.07
2022-10-14T17:34:31.739Z,24.47
2022-10-14T17:37:00.144Z,27.77
2022-10-14T17:39:29.467Z,24.77
2022-10-14T17:41:57.555Z,25.27
2022-10-14T17:44:25.747Z,25.43
2022-10-14T17:46:53.913Z,23.43
2022-10-14T17:49:23.278Z,26.40
2022-10-14T17:51:51.000Z,25.67
2022-10-14T17:54:18.706Z,26.03
2022-10-14T17:56:46.402Z,24.13
2022-10-14T17:59:14.311Z,30.87
2022-10-14T18:02:02.665Z,26.53
2022-10-14T18:04:32.668Z,23.37
2022-10-14T18:07:00.777Z,28.60
2022-10-14T18:09:28.485Z,24.40
2022-10-14T18:12:13.176Z,30.30
2022-10-14T18:14:41.386Z,23.93
2022-10-14T18:17:10.871Z,24.60
2022-10-14T18:19:40.783Z,23.60
2022-10-14T18:22:12.085Z,23.03
2022-10-14T18:24:39.787Z,22.70
2022-10-14T18:27:07.761Z,22.03
2022-10-14T18:29:35.560Z,24.37
2022-10-14T18:32:03.293Z,24.40
2022-10-14T18:34:30.981Z,24.43
2022-10-14T18:37:00.041Z,25.50
2022-10-14T18:39:27.883Z,21.50
2022-10-14T18:41:55.631Z,22.00
2022-10-14T18:44:23.777Z,24.43
2022-10-14T18:46:51.475Z,19.63
2022-10-14T18:49:19.198Z,22.07
2022-10-14T18:51:47.081Z,23.93
2022-10-14T18:54:18.513Z,25.43
2022-10-14T18:56:46.970Z,21.77
2022-10-14T18:59:17.930Z,23.53
2022-10-14T19:01:47.226Z,23.13
2022-10-14T19:04:16.630Z,25.60
2022-10-14T19:06:48.789Z,24.07
2022-10-14T19:09:20.876Z,25.17
2022-10-14T19:11:51.491Z,25.47
2022-10-14T19:14:19.224Z,26.67
2022-10-14T19:16:49.438Z,26.83
2022-10-14T19:19:19.389Z,25.97
2022-10-14T19:21:49.996Z,23.70
2022-10-14T19:24:19.084Z,24.23
2022-10-14T19:26:47.971Z,25.47
2022-10-14T19:29:16.478Z,26.50
2022-10-14T19:31:44.907Z,23.03
2022-10-14T19:34:14.914Z,23.53
2022-10-14T19:36:43.402Z,23.80
2022-10-14T19:39:13.905Z,25.90
2022-10-14T19:41:44.879Z,25.70
2022-10-14T19:44:15.611Z,22.67
2022-10-14T19:46:43.775Z,23.33
2022-10-14T19:49:13.705Z,22.53
2022-10-14T19:51:42.165Z,25.77
2022-10-14T19:54:11.782Z,23.70
2022-10-14T19:56:39.620Z,23.87
2022-10-14T19:59:09.234Z,22.87
2022-10-14T20:01:37.054Z,22.30
2022-10-14T20:04:05.226Z,22.00
2022-10-14T20:06:35.552Z,22.77
2022-10-14T20:09:03.573Z,25.20
2022-10-14T20:11:31.739Z,24.13
2022-10-14T20:13:59.451Z,23.67
2022-10-14T20:16:28.544Z,21.67
2022-10-14T20:18:56.503Z,20.40
2022-10-14T20:21:24.240Z,23.57
2022-10-14T20:23:52.042Z,26.87
2022-10-14T20:26:21.372Z,20.97
2022-10-14T20:28:49.975Z,22.50
2022-10-14T20:31:19.840Z,19.90
2022-10-14T20:33:49.134Z,20.57
2022-10-14T20:36:18.905Z,21.27
2022-10-14T20:38:47.493Z,19.73
2022-10-14T20:41:17.616Z,23.50
2022-10-14T20:43:46.513Z,20.37
2022-10-14T20:46:14.580Z,22.67
2022-10-14T20:48:42.378Z,22.33
2022-10-14T20:51:13.525Z,24.27
2022-10-14T20:56:15.340Z,24.63
2022-10-14T20:58:43.325Z,24.43
2022-10-14T21:01:13.046Z,22.53
2022-10-14T21:03:41.785Z,24.37
2022-10-14T21:06:13.311Z,22.13
2022-10-14T21:08:41.399Z,25.57
2022-10-14T21:11:14.076Z,24.53
2022-10-14T21:13:45.212Z,24.93
2022-10-14T21:16:20.310Z,21.53
2022-10-14T21:18:49.707Z,24.73
2022-10-14T21:21:21.323Z,23.13
2022-10-14T21:23:49.157Z,20.37
2022-10-14T21:26:17.398Z,21.80
2022-10-14T21:28:45.156Z,23.30
2022-10-14T21:31:17.519Z,25.47
2022-10-14T21:33:47.040Z,22.97
2022-10-14T21:36:16.539Z,20.70
2022-10-14T21:38:45.720Z,21.13
2022-10-14T21:41:13.574Z,23.93
2022-10-14T21:43:41.347Z,26.53
2022-10-14T21:46:11.245Z,22.00
2022-10-14T21:48:39.142Z,22.17
2022-10-14T21:51:08.947Z,24.40
2022-10-14T21:53:37.013Z,21.83
2022-10-14T21:56:06.611Z,22.70
2022-10-14T21:58:34.859Z,19.40
2022-10-14T22:01:04.559Z,21.17
2022-10-14T22:03:32.983Z,27.70
2022-10-14T22:06:01.369Z,24.23
2022-10-14T22:08:33.229Z,22.43
2022-10-14T22:11:01.330Z,20.57
2022-10-14T22:13:30.851Z,20.33
2022-10-14T22:15:58.671Z,22.13
2022-10-14T22:18:26.434Z,18.80
2022-10-14T22:21:03.716Z,18.30
2022-10-14T22:23:31.485Z,18.97
2022-10-14T22:26:00.632Z,21.67
2022-10-14T22:28:30.986Z,19.77
2022-10-14T22:31:05.401Z,21.83
2022-10-14T22:33:35.474Z,18.53
2022-10-14T22:36:07.851Z,16.07
2022-10-14T22:38:35.718Z,16.20
2022-10-14T22:41:04.005Z,17.53
2022-10-14T22:43:33.524Z,18.70
2022-10-14T22:46:01.761Z,16.10
2022-10-14T22:48:30.841Z,16.30
2022-10-14T22:51:04.960Z,14.73
2022-10-14T22:53:33.289Z,14.07
2022-10-14T22:56:01.533Z,15.83
2022-10-14T22:58:29.819Z,14.47
2022-10-14T23:01:06.661Z,15.27
2022-10-14T23:03:35.387Z,14.30
2022-10-14T23:06:05.119Z,14.53
2022-10-14T23:08:33.767Z,14.30
2022-10-14T23:11:02.535Z,16.63
2022-10-14T23:13:30.698Z,14.83
2022-10-14T23:16:00.788Z,18.60
2022-10-14T23:18:29.983Z,12.17
2022-10-14T23:20:57.706Z,12.90
2022-10-14T23:23:25.704Z,14.87
2022-10-14T23:25:53.372Z,14.50
2022-10-14T23:28:21.112Z,13.47
2022-10-14T23:30:48.794Z,16.27
2022-10-14T23:33:17.852Z,12.53
2022-10-14T23:35:45.611Z,13.57
2022-10-14T23:38:13.630Z,12.43
2022-10-14T23:40:41.395Z,14.10
2022-10-14T23:43:09.076Z,12.50
2022-10-14T23:45:36.803Z,11.63
2022-10-14T23:48:04.719Z,12.07
2022-10-14T23:50:33.763Z,11.33
2022-10-14T23:53:01.470Z,11.00
2022-10-14T23:55:29.135Z,12.13
2022-10-14T23:57:57.218Z,15.53
